Time;durP1;ratioP1;P1;durP2;ratioP2;P2;SDS_P1;SDS_P2;PMS_P1;PMS_P2;Temp;Humidity;BMP_temperature;BMP_pressure;BME280_temperature;BME280_humidity;BME280_pressure;Samples;Min_cycle;Max_cycle;Signal;HPM_P1;HPM_P2
2024/01/19 00:00:33;;;;;;;1.23;0.65;;;1.20;85.90;;;;;;4996620;28;20046;-66
2024/01/19 00:02:59;;;;;;;0.00;0.00;;;1.30;85.90;;;;;;4988480;28;20046;-66
2024/01/19 00:05:25;;;;;;;0.00;0.00;;;1.30;85.90;;;;;;4988653;28;20499;-66
2024/01/19 00:07:50;;;;;;;0.00;0.00;;;1.30;85.80;;;;;;4988476;28;20038;-66
2024/01/19 00:10:16;;;;;;;0.00;0.00;;;1.30;85.70;;;;;;4988674;28;20046;-66
2024/01/19 00:12:42;;;;;;;0.00;0.00;;;1.30;85.70;;;;;;4988358;28;20084;-66
2024/01/19 00:15:09;;;;;;;0.10;0.10;;;1.30;85.50;;;;;;4987818;28;20162;-66
2024/01/19 00:17:36;;;;;;;0.00;0.00;;;1.30;85.60;;;;;;4988448;28;20493;-66
2024/01/19 00:20:01;;;;;;;0.00;0.00;;;1.30;85.60;;;;;;4987396;28;20048;-66
2024/01/19 00:22:27;;;;;;;2.63;2.40;;;1.40;85.30;;;;;;4986337;28;20100;-66
2024/01/19 00:24:53;;;;;;;0.00;0.00;;;1.40;85.60;;;;;;4987553;28;20046;-66
2024/01/19 00:27:18;;;;;;;0.00;0.00;;;1.50;86.00;;;;;;4988056;28;20046;-66
2024/01/19 00:29:44;;;;;;;0.00;0.00;;;1.50;86.40;;;;;;5005248;28;20053;-66
2024/01/19 00:32:10;;;;;;;0.00;0.00;;;1.60;86.90;;;;;;4987372;28;20057;-66
2024/01/19 00:34:36;;;;;;;0.00;0.00;;;1.60;86.90;;;;;;4987737;28;20050;-66
2024/01/19 00:37:01;;;;;;;0.00;0.00;;;1.60;86.90;;;;;;4989083;28;20042;-66
2024/01/19 00:39:27;;;;;;;0.00;0.00;;;1.60;87.10;;;;;;4988429;28;20077;-66
2024/01/19 00:41:53;;;;;;;0.00;0.00;;;1.60;87.20;;;;;;4987720;28;20046;-66
2024/01/19 00:44:18;;;;;;;0.03;0.03;;;1.50;87.10;;;;;;4987190;28;20043;-66
2024/01/19 00:46:44;;;;;;;0.00;0.00;;;1.40;86.90;;;;;;4987519;28;20107;-66
2024/01/19 00:49:10;;;;;;;0.10;0.10;;;1.40;86.90;;;;;;4987822;28;20043;-66
2024/01/19 00:51:35;;;;;;;0.00;0.00;;;1.40;86.90;;;;;;4987872;28;20455;-66
2024/01/19 00:54:01;;;;;;;0.10;0.10;;;1.40;86.80;;;;;;4988148;28;20069;-66
2024/01/19 00:56:27;;;;;;;0.00;0.00;;;1.40;86.70;;;;;;4988068;28;20468;-66
2024/01/19 00:58:53;;;;;;;0.00;0.00;;;1.30;86.70;;;;;;4988196;28;20042;-66
2024/01/19 01:01:19;;;;;;;0.00;0.00;;;1.20;86.60;;;;;;4984191;28;20440;-66
2024/01/19 01:03:44;;;;;;;0.00;0.00;;;1.20;86.60;;;;;;4987508;28;20045;-66
2024/01/19 01:06:10;;;;;;;0.00;0.00;;;1.10;86.60;;;;;;4987691;28;20073;-66
2024/01/19 01:08:36;;;;;;;0.00;0.00;;;1.10;86.80;;;;;;4987482;28;20069;-66
2024/01/19 01:11:03;;;;;;;0.00;0.00;;;1.10;87.00;;;;;;4987495;28;20400;-65
2024/01/19 01:13:29;;;;;;;0.10;0.10;;;1.20;87.30;;;;;;4987188;28;20058;-66
2024/01/19 01:15:55;;;;;;;0.45;0.45;;;1.10;87.60;;;;;;4987341;28;20042;-66
2024/01/19 01:18:20;;;;;;;0.00;0.00;;;1.20;87.70;;;;;;4987027;28;20077;-66
2024/01/19 01:20:46;;;;;;;0.00;0.00;;;1.10;87.20;;;;;;4988035;28;20126;-67
2024/01/19 01:23:12;;;;;;;0.00;0.00;;;1.10;87.20;;;;;;4988249;28;20558;-66
2024/01/19 01:25:38;;;;;;;0.00;0.00;;;1.10;87.00;;;;;;4988060;28;20841;-66
2024/01/19 01:28:03;;;;;;;0.00;0.00;;;1.00;86.50;;;;;;4987975;28;20046;-66
2024/01/19 01:30:29;;;;;;;0.00;0.00;;;1.00;86.60;;;;;;4987790;28;20117;-66
2024/01/19 01:32:55;;;;;;;0.10;0.10;;;1.00;86.50;;;;;;4988017;28;20073;-66
2024/01/19 01:35:20;;;;;;;0.10;0.10;;;0.90;86.30;;;;;;4986855;28;20050;-66
2024/01/19 01:37:46;;;;;;;0.00;0.00;;;0.80;86.40;;;;;;4986960;28;20046;-66
2024/01/19 01:40:12;;;;;;;0.00;0.00;;;0.90;86.30;;;;;;4987718;28;20228;-66
2024/01/19 01:42:38;;;;;;;1.90;1.75;;;0.80;86.10;;;;;;4990010;28;20105;-66
2024/01/19 01:45:04;;;;;;;0.00;0.00;;;0.70;86.00;;;;;;4990643;28;20480;-66
2024/01/19 01:47:30;;;;;;;0.00;0.00;;;0.90;86.00;;;;;;4990372;28;20443;-66
2024/01/19 01:49:56;;;;;;;0.00;0.00;;;1.00;85.30;;;;;;4991180;28;20042;-66
2024/01/19 01:52:22;;;;;;;0.00;0.00;;;1.10;84.90;;;;;;4991423;28;20039;-66
2024/01/19 01:54:48;;;;;;;0.10;0.10;;;1.10;85.10;;;;;;4988846;28;20042;-66
2024/01/19 01:57:15;;;;;;;0.10;0.10;;;1.10;84.90;;;;;;4992154;28;20133;-66
2024/01/19 01:59:42;;;;;;;0.00;0.00;;;1.10;85.00;;;;;;4991835;28;20565;-66
2024/01/19 02:02:08;;;;;;;0.05;0.05;;;1.10;85.50;;;;;;4977489;28;20050;-66
2024/01/19 02:04:34;;;;;;;0.00;0.00;;;1.00;85.80;;;;;;5005085;28;20467;-66
2024/01/19 02:07:00;;;;;;;0.00;0.00;;;1.10;86.10;;;;;;4992009;28;20257;-66
2024/01/19 02:09:26;;;;;;;0.00;0.00;;;1.10;86.30;;;;;;4994819;28;20124;-66
2024/01/19 02:11:52;;;;;;;0.00;0.00;;;1.10;86.60;;;;;;5000915;28;20589;-66
2024/01/19 02:14:18;;;;;;;0.08;0.08;;;1.10;86.80;;;;;;4989080;28;20075;-67
2024/01/19 02:16:44;;;;;;;0.00;0.00;;;1.10;86.80;;;;;;4991184;28;20546;-66
2024/01/19 02:19:10;;;;;;;0.10;0.10;;;1.10;86.90;;;;;;4992097;28;20053;-66
2024/01/19 02:21:36;;;;;;;0.00;0.00;;;1.10;86.70;;;;;;4995099;28;20047;-66
2024/01/19 02:24:03;;;;;;;0.10;0.10;;;1.20;86.90;;;;;;4993621;28;20050;-66
2024/01/19 02:26:31;;;;;;;0.00;0.00;;;1.20;86.90;;;;;;5001180;28;20152;-66
2024/01/19 02:28:57;;;;;;;0.00;0.00;;;1.30;87.00;;;;;;5009936;28;20065;-66
2024/01/19 02:31:23;;;;;;;0.00;0.00;;;1.20;87.20;;;;;;4992171;28;20520;-66
2024/01/19 02:33:48;;;;;;;0.00;0.00;;;1.20;87.20;;;;;;4988598;28;20494;-66
2024/01/19 02:36:14;;;;;;;0.00;0.00;;;1.30;87.00;;;;;;4990812;28;20050;-66
2024/01/19 02:38:40;;;;;;;0.00;0.00;;;1.20;86.90;;;;;;4988758;28;20121;-66
2024/01/19 02:41:05;;;;;;;0.00;0.00;;;1.20;86.40;;;;;;4990249;28;20034;-66
2024/01/19 02:43:31;;;;;;;0.00;0.00;;;1.20;85.80;;;;;;4989901;28;20050;-66
2024/01/19 02:45:57;;;;;;;0.00;0.00;;;1.40;85.10;;;;;;5009939;28;20084;-67
2024/01/19 02:48:23;;;;;;;0.00;0.00;;;1.40;83.80;;;;;;4994842;28;20065;-67
2024/01/19 02:50:49;;;;;;;0.10;0.10;;;1.50;83.80;;;;;;4989633;28;20125;-67
2024/01/19 02:53:14;;;;;;;0.00;0.00;;;1.70;83.60;;;;;;4988880;28;20046;-67
2024/01/19 02:55:40;;;;;;;0.00;0.00;;;1.70;84.00;;;;;;4993270;28;20034;-67
2024/01/19 02:58:06;;;;;;;0.10;0.10;;;1.70;84.20;;;;;;5007738;28;20145;-66
2024/01/19 03:00:31;;;;;;;0.00;0.00;;;1.70;84.40;;;;;;4991072;28;20045;-66
2024/01/19 03:02:57;;;;;;;0.10;0.10;;;1.70;84.70;;;;;;4989649;28;20045;-67
2024/01/19 03:05:23;;;;;;;0.10;0.10;;;1.70;85.00;;;;;;4989907;28;20312;-67
2024/01/19 03:07:48;;;;;;;0.10;0.10;;;1.70;85.20;;;;;;4990068;28;20133;-67
2024/01/19 03:10:14;;;;;;;0.00;0.00;;;1.70;85.30;;;;;;4989757;28;20043;-67
2024/01/19 03:12:40;;;;;;;0.05;0.05;;;1.70;85.30;;;;;;4989253;28;20416;-67
2024/01/19 03:15:06;;;;;;;0.00;0.00;;;1.70;85.60;;;;;;4989056;28;20050;-67
2024/01/19 03:17:33;;;;;;;0.00;0.00;;;1.70;85.60;;;;;;4989679;28;20043;-66
2024/01/19 03:19:59;;;;;;;0.00;0.00;;;1.60;85.80;;;;;;4989647;28;20093;-66
2024/01/19 03:22:25;;;;;;;0.00;0.00;;;1.50;85.80;;;;;;4989478;28;20038;-67
2024/01/19 03:24:50;;;;;;;0.10;0.10;;;1.50;86.00;;;;;;4989841;28;20042;-66
2024/01/19 03:27:16;;;;;;;0.00;0.00;;;1.40;86.10;;;;;;4987440;28;20042;-66
2024/01/19 03:29:42;;;;;;;0.10;0.10;;;1.40;86.10;;;;;;4989021;28;20051;-67
2024/01/19 03:32:08;;;;;;;0.00;0.00;;;1.40;86.20;;;;;;4988629;28;20054;-66
2024/01/19 03:34:33;;;;;;;0.00;0.00;;;1.40;86.30;;;;;;4989042;28;20042;-66
2024/01/19 03:37:03;;;;;;;0.00;0.00;;;1.30;86.20;;;;;;4988885;28;20053;-66
2024/01/19 03:39:32;;;;;;;0.00;0.00;;;1.30;86.20;;;;;;4988845;28;20156;-66
2024/01/19 03:41:59;;;;;;;0.00;0.00;;;1.30;86.20;;;;;;4989227;28;20042;-67
2024/01/19 03:44:25;;;;;;;0.00;0.00;;;1.20;86.20;;;;;;4988306;28;20422;-67
2024/01/19 03:46:51;;;;;;;0.10;0.10;;;1.10;86.30;;;;;;4989147;28;20041;-67
2024/01/19 03:49:17;;;;;;;0.10;0.10;;;1.20;86.50;;;;;;4988751;28;20030;-67
2024/01/19 03:51:58;;;;;;;0.10;0.10;;;1.10;86.60;;;;;;4989097;28;20054;-67
2024/01/19 03:54:23;;;;;;;0.00;0.00;;;1.10;86.60;;;;;;4989564;28;20424;-67
2024/01/19 03:56:49;;;;;;;0.00;0.00;;;1.20;86.60;;;;;;4989896;28;20053;-66
2024/01/19 03:59:14;;;;;;;0.00;0.00;;;1.20;86.50;;;;;;4989261;28;20069;-67
2024/01/19 04:01:40;;;;;;;0.10;0.10;;;1.10;86.60;;;;;;4989482;28;20124;-67
2024/01/19 04:04:06;;;;;;;0.00;0.00;;;1.10;86.80;;;;;;4988617;28;20050;-66
2024/01/19 04:06:31;;;;;;;0.00;0.00;;;1.10;86.80;;;;;;4988606;28;20043;-66
2024/01/19 04:08:57;;;;;;;0.00;0.00;;;1.20;86.80;;;;;;4988363;28;20057;-66
2024/01/19 04:11:23;;;;;;;0.00;0.00;;;1.20;86.80;;;;;;4987716;28;20042;-66
2024/01/19 04:13:48;;;;;;;0.00;0.00;;;1.20;87.00;;;;;;4988802;28;20045;-66
2024/01/19 04:16:14;;;;;;;0.00;0.00;;;1.20;87.00;;;;;;5001967;28;20499;-66
2024/01/19 04:18:40;;;;;;;0.00;0.00;;;1.20;87.00;;;;;;4987158;28;20495;-66
2024/01/19 04:21:06;;;;;;;0.00;0.00;;;1.20;87.00;;;;;;4987345;28;20502;-66
2024/01/19 04:23:32;;;;;;;0.00;0.00;;;1.20;86.90;;;;;;4988342;28;20050;-66
2024/01/19 04:25:57;;;;;;;0.00;0.00;;;1.20;86.90;;;;;;4988448;28;20412;-66
2024/01/19 04:28:23;;;;;;;0.05;0.05;;;1.20;86.60;;;;;;4988228;28;20411;-66
2024/01/19 04:30:49;;;;;;;0.00;0.00;;;1.10;86.40;;;;;;4986526;28;20054;-66
2024/01/19 04:33:14;;;;;;;0.10;0.10;;;1.10;86.80;;;;;;4990659;28;20054;-66
2024/01/19 04:35:40;;;;;;;0.00;0.00;;;1.10;86.70;;;;;;4987725;28;20034;-66
2024/01/19 04:38:06;;;;;;;0.00;0.00;;;1.00;86.70;;;;;;4997892;28;20050;-66
2024/01/19 04:40:31;;;;;;;0.10;0.10;;;1.00;86.80;;;;;;4988204;28;20043;-66
2024/01/19 04:42:57;;;;;;;0.10;0.10;;;1.00;86.80;;;;;;4990603;28;20042;-66
2024/01/19 04:45:23;;;;;;;0.10;0.10;;;1.10;86.80;;;;;;4989235;28;20043;-66
2024/01/19 04:47:48;;;;;;;0.00;0.00;;;1.00;86.70;;;;;;4988976;28;20086;-66
2024/01/19 04:50:14;;;;;;;0.00;0.00;;;1.00;86.50;;;;;;4987768;28;20049;-66
2024/01/19 04:52:40;;;;;;;0.00;0.00;;;1.00;86.50;;;;;;4978475;28;20045;-66
2024/01/19 04:55:06;;;;;;;0.00;0.00;;;0.90;86.60;;;;;;4988984;28;20054;-66
2024/01/19 04:57:31;;;;;;;0.00;0.00;;;0.90;86.40;;;;;;4988565;28;20043;-66
2024/01/19 04:59:57;;;;;;;0.00;0.00;;;0.90;86.50;;;;;;4989195;28;20447;-66
2024/01/19 05:02:23;;;;;;;0.00;0.00;;;0.80;86.30;;;;;;4987843;28;20070;-66
2024/01/19 05:04:48;;;;;;;0.00;0.00;;;0.80;86.40;;;;;;4987969;28;20046;-66
2024/01/19 05:07:14;;;;;;;0.00;0.00;;;0.80;86.40;;;;;;4987439;28;20050;-66
2024/01/19 05:09:40;;;;;;;0.00;0.00;;;0.80;86.40;;;;;;4987907;28;20042;-66
2024/01/19 05:12:06;;;;;;;0.00;0.00;;;0.80;86.40;;;;;;4986131;28;20091;-66
2024/01/19 05:14:32;;;;;;;0.10;0.10;;;0.90;86.30;;;;;;4988365;28;20057;-66
2024/01/19 05:16:57;;;;;;;0.10;0.10;;;0.80;86.30;;;;;;4988119;28;20054;-66
2024/01/19 05:19:23;;;;;;;0.00;0.00;;;0.70;86.40;;;;;;4989660;28;20045;-66
2024/01/19 05:21:49;;;;;;;0.00;0.00;;;0.70;86.40;;;;;;4992047;28;20117;-66
2024/01/19 05:24:14;;;;;;;0.00;0.00;;;0.70;86.50;;;;;;4994020;28;20121;-66
2024/01/19 05:26:40;;;;;;;0.10;0.10;;;0.60;86.40;;;;;;4992770;28;20543;-66
2024/01/19 05:29:06;;;;;;;0.00;0.00;;;0.60;86.50;;;;;;4992484;28;20085;-66
2024/01/19 05:31:31;;;;;;;0.00;0.00;;;0.60;86.60;;;;;;4990988;28;20054;-66
2024/01/19 05:33:57;;;;;;;0.00;0.00;;;0.60;86.60;;;;;;4991297;28;20046;-66
2024/01/19 05:36:23;;;;;;;0.05;0.05;;;0.60;86.60;;;;;;4991137;28;20042;-66
2024/01/19 05:38:49;;;;;;;0.10;0.10;;;0.50;86.60;;;;;;4991478;28;20129;-66
2024/01/19 05:41:19;;;;;;;0.10;0.10;;;0.40;86.40;;;;;;4990902;28;20133;-66
2024/01/19 05:43:45;;;;;;;0.10;0.10;;;0.50;86.70;;;;;;4990729;28;20058;-66
2024/01/19 05:46:13;;;;;;;0.10;0.10;;;0.40;86.70;;;;;;5001360;28;20057;-66
2024/01/19 05:48:39;;;;;;;0.00;0.00;;;0.40;86.80;;;;;;4990919;28;20054;-66
2024/01/19 05:51:13;;;;;;;0.10;0.10;;;0.40;87.00;;;;;;4990608;28;20038;-66
2024/01/19 05:53:39;;;;;;;0.00;0.00;;;0.50;87.10;;;;;;4991205;28;20495;-66
2024/01/19 05:56:04;;;;;;;0.00;0.00;;;0.40;87.10;;;;;;4991735;28;20048;-66
2024/01/19 05:58:30;;;;;;;0.00;0.00;;;0.40;87.10;;;;;;4990723;28;20125;-66
2024/01/19 06:00:56;;;;;;;0.00;0.00;;;0.30;87.20;;;;;;4990811;28;20034;-66
2024/01/19 06:03:21;;;;;;;0.00;0.00;;;0.40;87.40;;;;;;4989866;28;20169;-66
2024/01/19 06:05:47;;;;;;;0.00;0.00;;;0.30;87.50;;;;;;4991397;28;20053;-66
2024/01/19 06:08:13;;;;;;;0.00;0.00;;;0.40;87.60;;;;;;4980654;28;20042;-66
2024/01/19 06:10:38;;;;;;;0.10;0.10;;;0.40;87.50;;;;;;4989916;28;20080;-66
2024/01/19 06:13:04;;;;;;;0.10;0.10;;;0.50;87.60;;;;;;4990135;28;20092;-66
2024/01/19 06:15:30;;;;;;;0.10;0.10;;;0.40;87.70;;;;;;4991812;28;20446;-66
2024/01/19 06:17:55;;;;;;;0.00;0.00;;;0.50;87.90;;;;;;4990340;28;20042;-66
2024/01/19 06:20:21;;;;;;;0.00;0.00;;;0.50;88.10;;;;;;4990165;28;20042;-66
2024/01/19 06:22:47;;;;;;;0.10;0.10;;;0.50;88.20;;;;;;4981701;28;20077;-66
2024/01/19 06:25:14;;;;;;;0.00;0.00;;;0.60;88.30;;;;;;4991490;28;20046;-66
2024/01/19 06:27:39;;;;;;;0.00;0.00;;;0.60;88.20;;;;;;4988024;28;20054;-66
2024/01/19 06:30:06;;;;;;;0.00;0.00;;;0.70;88.30;;;;;;4989535;28;20558;-66
2024/01/19 06:32:32;;;;;;;0.00;0.00;;;0.70;88.10;;;;;;4989676;28;20514;-66
2024/01/19 06:34:58;;;;;;;0.00;0.00;;;0.60;88.20;;;;;;4990192;28;20162;-66
2024/01/19 06:37:23;;;;;;;0.00;0.00;;;0.60;88.10;;;;;;4992504;28;20045;-66
2024/01/19 06:39:49;;;;;;;0.00;0.00;;;0.60;88.10;;;;;;4993136;28;20069;-66
2024/01/19 06:42:15;;;;;;;0.00;0.00;;;0.60;88.30;;;;;;4988874;28;20046;-67
2024/01/19 06:44:43;;;;;;;0.00;0.00;;;0.60;88.30;;;;;;4987207;28;20049;-66
2024/01/19 06:47:09;;;;;;;0.00;0.00;;;0.60;88.30;;;;;;4988352;28;20097;-66
2024/01/19 06:49:36;;;;;;;0.03;0.03;;;0.60;88.40;;;;;;4989131;28;20184;-66
2024/01/19 06:52:05;;;;;;;0.00;0.00;;;0.70;88.30;;;;;;4988293;28;20050;-66
2024/01/19 06:54:32;;;;;;;0.00;0.00;;;0.70;88.20;;;;;;4987011;28;20050;-66
2024/01/19 06:56:58;;;;;;;0.00;0.00;;;0.60;88.10;;;;;;4997046;28;20120;-66
2024/01/19 06:59:25;;;;;;;0.00;0.00;;;0.70;88.00;;;;;;4986940;28;20488;-66
2024/01/19 07:01:51;;;;;;;0.00;0.00;;;0.70;88.00;;;;;;4984982;28;20066;-66
2024/01/19 07:04:17;;;;;;;0.00;0.00;;;0.60;88.10;;;;;;4992888;28;20042;-66
2024/01/19 07:06:42;;;;;;;0.00;0.00;;;0.70;88.10;;;;;;4994150;28;20049;-66
2024/01/19 07:09:08;;;;;;;0.00;0.00;;;0.60;88.00;;;;;;4989350;28;20044;-66
2024/01/19 07:11:35;;;;;;;0.68;0.68;;;0.70;88.20;;;;;;4987234;28;20039;-65
2024/01/19 07:14:01;;;;;;;0.00;0.00;;;0.70;88.10;;;;;;4990579;28;20046;-66
2024/01/19 07:16:26;;;;;;;0.73;0.73;;;0.60;88.20;;;;;;4991739;28;20046;-65
2024/01/19 07:18:52;;;;;;;0.00;0.00;;;0.60;88.30;;;;;;4969132;28;20038;-66
2024/01/19 07:21:18;;;;;;;0.05;0.05;;;0.70;88.40;;;;;;4987164;28;20046;-67
2024/01/19 07:23:43;;;;;;;0.00;0.00;;;0.70;88.30;;;;;;4993109;28;20061;-66
2024/01/19 07:26:10;;;;;;;1.00;1.00;;;0.60;88.00;;;;;;4997705;28;20046;-67
2024/01/19 07:28:35;;;;;;;0.10;0.10;;;0.60;88.30;;;;;;4986415;28;20108;-66
2024/01/19 07:31:01;;;;;;;0.00;0.00;;;0.70;88.40;;;;;;4997195;28;20396;-66
2024/01/19 07:33:28;;;;;;;0.00;0.00;;;0.70;88.20;;;;;;4988914;28;20112;-66
2024/01/19 07:35:54;;;;;;;0.10;0.10;;;0.60;88.30;;;;;;4988106;28;20077;-66
2024/01/19 07:38:20;;;;;;;0.10;0.10;;;0.60;88.40;;;;;;4988987;28;20479;-66
2024/01/19 07:40:46;;;;;;;0.10;0.10;;;0.70;88.40;;;;;;4987837;28;20125;-66
2024/01/19 07:43:11;;;;;;;0.10;0.10;;;0.70;88.40;;;;;;4988662;28;20042;-66
2024/01/19 07:45:37;;;;;;;0.00;0.00;;;0.80;88.50;;;;;;4984138;28;20392;-66
2024/01/19 07:48:03;;;;;;;0.10;0.10;;;0.70;88.40;;;;;;4988329;28;20054;-66
2024/01/19 07:50:29;;;;;;;0.10;0.10;;;0.80;88.30;;;;;;4986812;28;20038;-67
2024/01/19 07:52:54;;;;;;;0.00;0.00;;;0.80;88.40;;;;;;4990360;28;20042;-66
2024/01/19 07:55:20;;;;;;;0.10;0.10;;;0.80;88.20;;;;;;4985642;28;20054;-66
2024/01/19 07:57:46;;;;;;;0.00;0.00;;;0.90;88.20;;;;;;4985342;28;20403;-65
2024/01/19 08:00:12;;;;;;;0.00;0.00;;;0.80;88.10;;;;;;4989771;28;20046;-65
2024/01/19 08:02:40;;;;;;;0.10;0.10;;;0.90;88.00;;;;;;4993480;28;20045;-66
2024/01/19 08:05:06;;;;;;;9.23;2.15;;;0.80;87.90;;;;;;4996120;28;20046;-65
2024/01/19 08:07:31;;;;;;;0.15;0.15;;;0.80;87.80;;;;;;4995299;28;20049;-66
2024/01/19 08:09:58;;;;;;;1.88;1.77;;;0.80;87.70;;;;;;4995674;28;20468;-66
2024/01/19 08:12:23;;;;;;;1.33;1.23;;;0.90;87.50;;;;;;4992482;28;20859;-66
2024/01/19 08:14:50;;;;;;;0.03;0.03;;;0.90;87.40;;;;;;4990168;28;20038;-66
2024/01/19 08:17:16;;;;;;;0.20;0.20;;;0.90;87.20;;;;;;4987062;28;20050;-66
2024/01/19 08:19:42;;;;;;;0.20;0.20;;;0.80;87.00;;;;;;4987844;28;20045;-66
2024/01/19 08:22:08;;;;;;;0.10;0.10;;;0.80;87.00;;;;;;4987386;28;20046;-66
2024/01/19 08:24:37;;;;;;;0.00;0.00;;;0.80;86.90;;;;;;4989410;28;20100;-66
2024/01/19 08:27:04;;;;;;;0.10;0.10;;;0.80;86.80;;;;;;4990799;28;20415;-66
2024/01/19 08:29:32;;;;;;;0.10;0.10;;;0.90;86.90;;;;;;4987725;28;20134;-67
2024/01/19 08:31:58;;;;;;;0.10;0.10;;;0.90;86.70;;;;;;4987960;28;20063;-67
2024/01/19 08:34:24;;;;;;;0.10;0.10;;;0.80;86.60;;;;;;4989274;28;20469;-67
2024/01/19 08:36:50;;;;;;;0.00;0.00;;;0.90;86.70;;;;;;4986562;28;20669;-66
2024/01/19 08:39:15;;;;;;;0.00;0.00;;;0.90;86.60;;;;;;4984406;28;20089;-66
2024/01/19 08:41:43;;;;;;;1.52;1.45;;;0.90;86.40;;;;;;4978222;28;20575;-67
2024/01/19 08:44:09;;;;;;;0.03;0.03;;;0.90;86.50;;;;;;4992008;28;20046;-66
2024/01/19 08:46:34;;;;;;;0.10;0.10;;;1.00;86.40;;;;;;4984726;28;20046;-66
2024/01/19 08:49:00;;;;;;;0.10;0.10;;;1.00;86.30;;;;;;4989482;28;20046;-67
2024/01/19 08:51:29;;;;;;;0.00;0.00;;;1.00;86.20;;;;;;4977157;28;20049;-67
2024/01/19 08:53:55;;;;;;;0.00;0.00;;;1.10;86.00;;;;;;4993872;28;20038;-66
2024/01/19 08:56:20;;;;;;;0.10;0.10;;;1.20;86.10;;;;;;5002091;28;20046;-66
2024/01/19 08:58:47;;;;;;;0.10;0.10;;;1.20;86.10;;;;;;4985749;28;20449;-66
2024/01/19 09:01:19;;;;;;;0.00;0.00;;;1.30;85.90;;;;;;4990411;28;20149;-66
2024/01/19 09:03:45;;;;;;;0.30;0.30;;;1.40;85.90;;;;;;4987452;28;20038;-68
2024/01/19 09:06:11;;;;;;;0.00;0.00;;;1.40;85.70;;;;;;4989793;28;20039;-67
2024/01/19 09:08:41;;;;;;;0.10;0.10;;;1.50;85.80;;;;;;4985696;28;20050;-67
2024/01/19 09:11:08;;;;;;;0.10;0.10;;;1.50;85.50;;;;;;4984506;28;20430;-67
2024/01/19 09:13:34;;;;;;;0.00;0.00;;;1.50;85.40;;;;;;4986388;28;20064;-67
2024/01/19 09:15:59;;;;;;;0.10;0.10;;;1.50;85.10;;;;;;4985697;28;20043;-67
2024/01/19 09:18:25;;;;;;;0.05;0.05;;;1.50;84.90;;;;;;4985106;28;20046;-67
2024/01/19 09:20:51;;;;;;;0.10;0.10;;;1.60;85.00;;;;;;4986384;28;20400;-67
2024/01/19 09:23:16;;;;;;;0.10;0.10;;;1.70;84.90;;;;;;4999909;28;20499;-67
2024/01/19 09:25:42;;;;;;;0.00;0.00;;;1.60;84.70;;;;;;4985364;28;20437;-67
2024/01/19 09:28:08;;;;;;;0.00;0.00;;;1.70;84.80;;;;;;4987433;28;20050;-67
2024/01/19 09:30:34;;;;;;;0.43;0.43;;;1.70;84.30;;;;;;4984794;28;20051;-67
2024/01/19 09:33:00;;;;;;;0.00;0.00;;;1.70;84.40;;;;;;4986515;28;20058;-67
2024/01/19 09:35:25;;;;;;;0.03;0.03;;;1.80;84.10;;;;;;4989920;28;20183;-67
2024/01/19 09:37:51;;;;;;;0.00;0.00;;;1.70;84.00;;;;;;4986553;28;20046;-67
2024/01/19 09:40:19;;;;;;;0.00;0.00;;;1.90;83.90;;;;;;4985229;28;20043;-67
2024/01/19 09:42:46;;;;;;;0.00;0.00;;;1.90;83.70;;;;;;4985886;28;20046;-66
2024/01/19 09:45:17;;;;;;;0.10;0.10;;;2.00;83.80;;;;;;4985457;28;20046;-67
2024/01/19 09:47:52;;;;;;;0.00;0.00;;;2.00;83.70;;;;;;4989413;28;20475;-67
2024/01/19 09:50:19;;;;;;;0.22;0.22;;;2.10;83.70;;;;;;4998926;28;20057;-68
2024/01/19 09:53:01;;;;;;;0.00;0.00;;;2.10;83.20;;;;;;4989514;28;20046;-67
2024/01/19 09:55:28;;;;;;;0.00;0.00;;;2.20;83.50;;;;;;4985866;28;20041;-67
2024/01/19 09:57:56;;;;;;;0.00;0.00;;;2.30;83.10;;;;;;4986159;28;20034;-67
2024/01/19 10:00:22;;;;;;;0.13;0.13;;;2.30;83.00;;;;;;4985866;28;20054;-67
2024/01/19 10:02:52;;;;;;;0.00;0.00;;;2.40;83.00;;;;;;4987478;28;20034;-67
2024/01/19 10:05:19;;;;;;;0.10;0.10;;;2.50;83.00;;;;;;4989760;28;20503;-67
2024/01/19 10:07:47;;;;;;;0.00;0.00;;;2.60;82.80;;;;;;4989644;28;20452;-67
2024/01/19 10:10:15;;;;;;;0.10;0.10;;;2.60;82.90;;;;;;4988480;28;20133;-67
2024/01/19 10:12:42;;;;;;;0.10;0.10;;;2.70;83.00;;;;;;4988305;28;20057;-67
2024/01/19 10:15:13;;;;;;;0.10;0.10;;;2.60;82.80;;;;;;4989377;28;20117;-67
2024/01/19 10:17:40;;;;;;;0.10;0.10;;;2.70;82.50;;;;;;4989469;28;20046;-66
2024/01/19 10:20:09;;;;;;;0.00;0.00;;;2.70;82.80;;;;;;4989366;28;20451;-67
2024/01/19 10:22:35;;;;;;;0.00;0.00;;;2.80;82.80;;;;;;4990848;28;20570;-67
2024/01/19 10:25:12;;;;;;;6.03;2.50;;;2.70;82.60;;;;;;4989523;28;20054;-67
2024/01/19 10:27:39;;;;;;;0.00;0.00;;;2.90;82.50;;;;;;4989104;28;20282;-67
2024/01/19 10:30:11;;;;;;;0.00;0.00;;;2.90;82.50;;;;;;4988297;28;20042;-67
2024/01/19 10:32:39;;;;;;;0.10;0.10;;;2.90;82.60;;;;;;4988594;28;20062;-67
2024/01/19 10:35:16;;;;;;;0.10;0.10;;;3.00;82.10;;;;;;4988976;28;20042;-67
2024/01/19 10:37:42;;;;;;;1.45;0.65;;;3.00;82.10;;;;;;4985298;28;20049;-67
2024/01/19 10:40:26;;;;;;;0.10;0.10;;;3.00;81.40;;;;;;4975980;28;20098;-67
2024/01/19 10:42:55;;;;;;;0.03;0.03;;;3.00;81.40;;;;;;4976350;28;20050;-67
2024/01/19 10:45:23;;;;;;;0.00;0.00;;;3.10;81.20;;;;;;4992329;28;20446;-67
2024/01/19 10:47:53;;;;;;;0.10;0.10;;;3.20;81.30;;;;;;5009176;28;20046;-67
2024/01/19 10:50:20;;;;;;;0.00;0.00;;;3.30;81.10;;;;;;4996726;28;20431;-67
2024/01/19 10:52:51;;;;;;;0.10;0.10;;;3.30;80.70;;;;;;4998131;28;20050;-67
2024/01/19 10:55:25;;;;;;;0.55;0.43;;;3.40;80.20;;;;;;4989677;28;20042;-68
2024/01/19 10:58:11;;;;;;;0.00;0.00;;;3.50;80.60;;;;;;4987343;28;20050;-68
2024/01/19 11:00:38;;;;;;;0.00;0.00;;;3.50;80.10;;;;;;4988564;28;20042;-68
2024/01/19 11:03:04;;;;;;;0.05;0.05;;;3.50;80.30;;;;;;4990109;28;20055;-66
2024/01/19 11:05:31;;;;;;;0.00;0.00;;;3.60;80.50;;;;;;4989511;28;20045;-65
2024/01/19 11:07:59;;;;;;;0.00;0.00;;;3.70;80.60;;;;;;4989323;28;20042;-66
2024/01/19 11:10:28;;;;;;;0.00;0.00;;;3.70;80.20;;;;;;4987869;28;20510;-66
2024/01/19 11:12:55;;;;;;;0.10;0.10;;;3.70;80.50;;;;;;4980559;28;20109;-66
2024/01/19 11:15:48;;;;;;;0.00;0.00;;;3.80;80.70;;;;;;4984157;28;20120;-66
2024/01/19 11:18:15;;;;;;;0.00;0.00;;;3.80;80.60;;;;;;4978692;28;20397;-66
2024/01/19 11:20:41;;;;;;;0.10;0.10;;;3.80;80.40;;;;;;4989092;28;20030;-67
2024/01/19 11:23:07;;;;;;;0.00;0.00;;;3.80;80.60;;;;;;4987981;28;20081;-67
2024/01/19 11:25:40;;;;;;;0.00;0.00;;;4.00;80.60;;;;;;4989010;28;20415;-67
2024/01/19 11:28:22;;;;;;;0.10;0.10;;;4.00;80.60;;;;;;4987988;28;20046;-66
2024/01/19 11:31:06;;;;;;;0.00;0.00;;;4.00;80.50;;;;;;4986979;28;20085;-67
2024/01/19 11:33:32;;;;;;;0.05;0.05;;;4.10;80.50;;;;;;4982517;28;20108;-68
2024/01/19 11:35:58;;;;;;;0.10;0.10;;;4.10;80.40;;;;;;4988383;28;20042;-67
2024/01/19 11:38:44;;;;;;;0.10;0.10;;;4.10;80.20;;;;;;4988319;28;20077;-67
2024/01/19 11:41:29;;;;;;;0.00;0.00;;;4.10;80.30;;;;;;4988650;28;20081;-67
2024/01/19 11:44:01;;;;;;;0.10;0.10;;;4.10;80.50;;;;;;4988519;28;20046;-66
2024/01/19 11:46:44;;;;;;;0.10;0.10;;;4.20;80.50;;;;;;4987792;28;20038;-66
2024/01/19 11:49:29;;;;;;;0.10;0.10;;;4.20;80.40;;;;;;4986912;28;20480;-67
2024/01/19 11:51:55;;;;;;;0.10;0.10;;;4.20;80.40;;;;;;4989985;28;20038;-68
2024/01/19 11:54:28;;;;;;;0.10;0.10;;;4.20;80.00;;;;;;4987258;28;20385;-67
2024/01/19 11:57:17;;;;;;;0.63;0.63;;;4.30;80.10;;;;;;4988040;28;20113;-68
2024/01/19 11:59:44;;;;;;;0.00;0.00;;;4.30;79.90;;;;;;4983330;28;20503;-67
2024/01/19 12:02:33;;;;;;;0.00;0.00;;;4.40;79.50;;;;;;4987346;28;20077;-67
2024/01/19 12:05:04;;;;;;;0.00;0.00;;;4.40;79.40;;;;;;4988582;28;20100;-67
2024/01/19 12:07:29;;;;;;;0.00;0.00;;;4.30;79.30;;;;;;4988401;28;20136;-67
2024/01/19 12:10:23;;;;;;;0.45;0.45;;;4.40;78.90;;;;;;4988006;28;20116;-67
2024/01/19 12:12:49;;;;;;;0.08;0.08;;;4.40;79.10;;;;;;4986589;28;20099;-67
2024/01/19 12:15:17;;;;;;;0.00;0.00;;;4.40;79.00;;;;;;4987822;28;20427;-67
2024/01/19 12:17:44;;;;;;;0.00;0.00;;;4.50;78.70;;;;;;4986696;28;20536;-67
2024/01/19 12:20:15;;;;;;;0.10;0.10;;;4.50;78.80;;;;;;4986845;28;20460;-68
2024/01/19 12:22:42;;;;;;;0.10;0.10;;;4.50;78.70;;;;;;4985840;28;20113;-66
2024/01/19 12:25:19;;;;;;;0.05;0.05;;;4.50;78.60;;;;;;4987827;28;20034;-66
2024/01/19 12:27:46;;;;;;;0.00;0.00;;;4.60;78.20;;;;;;4987613;28;20073;-66
2024/01/19 12:30:17;;;;;;;0.00;0.00;;;4.50;77.80;;;;;;4989296;28;20046;-66
2024/01/19 12:32:45;;;;;;;0.00;0.00;;;4.50;77.80;;;;;;4985073;28;20050;-66
2024/01/19 12:35:11;;;;;;;0.17;0.17;;;4.50;77.70;;;;;;4986475;28;20050;-66
2024/01/19 12:37:37;;;;;;;0.00;0.00;;;4.60;77.70;;;;;;4978436;28;20108;-66
2024/01/19 12:40:20;;;;;;;0.10;0.10;;;4.50;77.10;;;;;;4987286;28;20042;-68
2024/01/19 12:42:47;;;;;;;0.00;0.00;;;4.50;77.20;;;;;;4986182;28;20042;-67
2024/01/19 12:45:14;;;;;;;0.00;0.00;;;4.60;77.50;;;;;;4992304;28;20042;-67
2024/01/19 12:47:47;;;;;;;0.00;0.00;;;4.60;77.30;;;;;;4987349;28;20189;-67
2024/01/19 12:50:13;;;;;;;0.10;0.10;;;4.60;77.00;;;;;;4987307;28;20046;-67
2024/01/19 12:52:39;;;;;;;0.00;0.00;;;4.60;77.30;;;;;;4999467;28;20550;-68
2024/01/19 12:55:06;;;;;;;0.00;0.00;;;4.50;77.10;;;;;;4972823;28;20049;-67
2024/01/19 12:57:32;;;;;;;0.10;0.10;;;4.60;77.40;;;;;;4968422;28;20054;-67